createdAt,value
2018-01-08T00:00:16.310Z,6.33
2018-01-08T00:02:45.630Z,5.50
2018-01-08T00:05:14.145Z,6.57
2018-01-08T00:07:42.758Z,6.33
2018-01-08T00:10:20.863Z,5.83
2018-01-08T00:12:49.423Z,6.60
2018-01-08T00:15:17.929Z,6.10
2018-01-08T00:17:46.512Z,6.03
2018-01-08T00:20:15.076Z,9.17
2018-01-08T00:22:43.630Z,6.17
2018-01-08T00:25:12.167Z,7.40
2018-01-08T00:27:40.745Z,7.90
2018-01-08T00:30:09.270Z,8.70
2018-01-08T00:32:37.809Z,6.23
2018-01-08T00:35:06.372Z,8.40
2018-01-08T00:37:34.865Z,8.97
2018-01-08T00:40:03.463Z,8.30
2018-01-08T00:42:32.019Z,7.40
2018-01-08T00:45:00.552Z,8.67
2018-01-08T00:47:29.112Z,8.53
2018-01-08T00:49:58.427Z,10.60
2018-01-08T00:52:27.770Z,6.90
2018-01-08T00:54:56.333Z,8.40
2018-01-08T00:57:24.930Z,9.07
2018-01-08T00:59:53.426Z,7.60
2018-01-08T01:02:21.974Z,7.03
2018-01-08T01:04:50.486Z,7.00
2018-01-08T01:07:19.069Z,7.13
2018-01-08T01:09:48.521Z,6.83
2018-01-08T01:12:17.802Z,7.17
2018-01-08T01:14:46.288Z,7.43
2018-01-08T01:17:14.690Z,7.00
2018-01-08T01:19:43.249Z,6.57
2018-01-08T01:22:11.777Z,6.97
2018-01-08T01:24:40.336Z,6.80
2018-01-08T01:27:09.689Z,7.37
2018-01-08T01:29:38.242Z,6.27
2018-01-08T01:32:06.848Z,7.27
2018-01-08T01:34:35.407Z,6.50
2018-01-08T01:37:06.213Z,6.90
2018-01-08T01:39:35.757Z,6.50
2018-01-08T01:42:05.273Z,6.33
2018-01-08T01:44:34.811Z,7.00
2018-01-08T01:47:04.385Z,6.93
2018-01-08T01:49:33.942Z,6.53
2018-01-08T01:52:03.535Z,8.63
2018-01-08T01:54:33.066Z,7.77
2018-01-08T01:57:02.645Z,7.77
2018-01-08T01:59:32.214Z,8.20
2018-01-08T02:02:01.799Z,7.90
2018-01-08T02:04:31.359Z,8.23
2018-01-08T02:07:00.937Z,7.03
2018-01-08T02:09:30.494Z,7.10
2018-01-08T02:12:00.029Z,7.50
2018-01-08T02:14:29.581Z,7.50
2018-01-08T02:16:59.162Z,7.83
2018-01-08T02:19:28.737Z,8.43
2018-01-08T02:21:58.318Z,7.90
2018-01-08T02:24:27.883Z,8.10
2018-01-08T02:26:57.442Z,8.33
2018-01-08T02:29:26.983Z,8.20
2018-01-08T02:31:56.583Z,8.00
2018-01-08T02:34:26.163Z,8.43
2018-01-08T02:36:55.736Z,8.07
2018-01-08T02:39:25.305Z,8.07
2018-01-08T02:41:54.871Z,8.43
2018-01-08T02:44:24.445Z,8.47
2018-01-08T02:46:53.999Z,8.97
2018-01-08T02:49:23.541Z,9.97
2018-01-08T02:51:53.100Z,10.47
2018-01-08T02:54:22.657Z,9.70
2018-01-08T02:56:52.429Z,9.10
2018-01-08T02:59:22.035Z,8.83
2018-01-08T03:01:51.596Z,8.83
2018-01-08T03:04:21.178Z,9.03
2018-01-08T03:06:50.765Z,9.40
2018-01-08T03:09:20.354Z,8.70
2018-01-08T03:11:49.946Z,8.67
2018-01-08T03:14:19.501Z,8.93
2018-01-08T03:16:49.037Z,8.93
2018-01-08T03:19:18.612Z,8.70
2018-01-08T03:21:48.186Z,9.70
2018-01-08T03:24:17.746Z,9.30
2018-01-08T03:26:47.284Z,9.90
2018-01-08T03:29:16.873Z,9.27
2018-01-08T03:31:46.453Z,9.77
2018-01-08T03:34:16.027Z,9.90
2018-01-08T03:36:45.597Z,9.53
2018-01-08T03:39:15.109Z,9.20
2018-01-08T03:41:44.672Z,10.30
2018-01-08T03:44:14.233Z,9.53
2018-01-08T03:46:43.819Z,10.03
2018-01-08T03:49:13.382Z,10.73
2018-01-08T03:51:42.947Z,9.80
2018-01-08T03:54:12.525Z,10.23
2018-01-08T03:56:42.107Z,10.07
2018-01-08T03:59:11.660Z,9.30
2018-01-08T04:01:41.230Z,10.17
2018-01-08T04:04:10.785Z,10.87
2018-01-08T04:06:40.415Z,10.23
2018-01-08T04:09:09.990Z,9.90
2018-01-08T04:11:39.571Z,9.90
2018-01-08T04:14:09.093Z,10.20
2018-01-08T04:16:38.676Z,10.63
2018-01-08T04:19:08.259Z,11.00
2018-01-08T04:21:37.823Z,10.00
2018-01-08T04:24:07.386Z,10.37
2018-01-08T04:26:36.951Z,10.80
2018-01-08T04:29:06.543Z,10.80
2018-01-08T04:31:36.043Z,10.47
2018-01-08T04:34:05.566Z,9.27
2018-01-08T04:36:35.181Z,10.43
2018-01-08T04:39:04.425Z,11.13
2018-01-08T04:41:33.999Z,11.60
2018-01-08T04:44:03.565Z,11.40
2018-01-08T04:46:33.135Z,10.80
2018-01-08T04:49:02.688Z,12.13
2018-01-08T04:51:32.252Z,11.20
2018-01-08T04:54:01.825Z,11.17
2018-01-08T04:56:31.404Z,11.17
2018-01-08T04:59:01.178Z,11.20
2018-01-08T05:01:30.733Z,11.30
2018-01-08T05:04:00.290Z,9.60
2018-01-08T05:06:29.851Z,9.83
2018-01-08T05:08:59.445Z,12.37
2018-01-08T05:11:28.999Z,11.87
2018-01-08T05:13:58.545Z,12.77
2018-01-08T05:16:28.117Z,11.93
2018-01-08T05:18:57.694Z,13.10
2018-01-08T05:21:27.253Z,11.90
2018-01-08T05:23:56.840Z,11.73
2018-01-08T05:26:26.429Z,11.20
2018-01-08T05:28:56.005Z,11.10
2018-01-08T05:31:25.604Z,12.27
2018-01-08T05:33:55.167Z,12.23
2018-01-08T05:36:24.770Z,11.20
2018-01-08T05:38:54.325Z,11.67
2018-01-08T05:41:23.890Z,12.33
2018-01-08T05:43:53.464Z,11.17
2018-01-08T05:46:23.045Z,11.07
2018-01-08T05:48:52.632Z,12.70
2018-01-08T05:51:22.214Z,13.23
2018-01-08T05:53:51.795Z,12.70
2018-01-08T05:56:21.369Z,11.23
2018-01-08T05:58:50.944Z,10.97
2018-01-08T06:01:20.493Z,11.83
2018-01-08T06:03:49.994Z,11.43
2018-01-08T06:06:19.553Z,12.10
2018-01-08T06:08:49.115Z,10.43
2018-01-08T06:11:18.701Z,11.13
2018-01-08T06:13:48.265Z,11.70
2018-01-08T06:16:17.824Z,11.77
2018-01-08T06:18:47.421Z,13.23
2018-01-08T06:21:17.015Z,11.70
2018-01-08T06:23:46.577Z,11.80
2018-01-08T06:26:16.109Z,11.60
2018-01-08T06:28:45.682Z,13.03
2018-01-08T06:31:15.232Z,12.97
2018-01-08T06:33:44.823Z,11.10
2018-01-08T06:36:14.381Z,11.20
2018-01-08T06:38:43.954Z,12.53
2018-01-08T06:41:13.534Z,13.40
2018-01-08T06:43:43.085Z,11.60
2018-01-08T06:46:12.654Z,12.70
2018-01-08T06:48:42.190Z,12.80
2018-01-08T06:51:11.736Z,11.60
2018-01-08T06:53:41.289Z,11.87
2018-01-08T06:56:10.850Z,12.47
2018-01-08T06:58:40.400Z,11.80
2018-01-08T07:01:09.946Z,13.33
2018-01-08T07:03:39.523Z,12.07
2018-01-08T07:06:09.120Z,13.03
2018-01-08T07:08:38.682Z,13.43
2018-01-08T07:11:08.254Z,12.03
2018-01-08T07:13:37.829Z,11.60
2018-01-08T07:16:07.384Z,12.70
2018-01-08T07:18:36.941Z,12.10
2018-01-08T07:21:06.493Z,10.97
2018-01-08T07:23:36.021Z,12.33
2018-01-08T07:26:05.590Z,13.23
2018-01-08T07:28:35.144Z,12.93
2018-01-08T07:31:04.703Z,12.30
2018-01-08T07:33:34.253Z,12.33
2018-01-08T07:36:04.002Z,12.77
2018-01-08T07:38:33.564Z,12.20
2018-01-08T07:41:03.182Z,12.53
2018-01-08T07:43:32.777Z,13.20
2018-01-08T07:46:02.398Z,12.50
2018-01-08T07:48:32.006Z,12.80
2018-01-08T07:51:01.600Z,12.63
2018-01-08T07:53:31.199Z,11.63
2018-01-08T07:56:00.780Z,11.87
2018-01-08T07:58:30.353Z,12.57
2018-01-08T08:00:59.943Z,12.97
2018-01-08T08:03:29.529Z,12.83
2018-01-08T08:05:59.082Z,12.70
2018-01-08T08:08:28.669Z,12.97
2018-01-08T08:10:58.238Z,12.17
2018-01-08T08:13:27.798Z,12.83
2018-01-08T08:15:57.667Z,12.53
2018-01-08T08:18:27.283Z,11.03
2018-01-08T08:20:57.354Z,12.00
2018-01-08T08:23:26.977Z,11.57
2018-01-08T08:25:56.510Z,12.67
2018-01-08T08:28:26.238Z,12.93
2018-01-08T08:30:56.638Z,13.37
2018-01-08T08:33:26.932Z,11.60
2018-01-08T08:35:56.533Z,12.27
2018-01-08T08:38:26.093Z,12.33
2018-01-08T08:40:55.670Z,11.40
2018-01-08T08:43:25.242Z,13.20
2018-01-08T08:45:54.808Z,11.03
2018-01-08T08:48:24.386Z,12.20
2018-01-08T08:50:53.952Z,11.97
2018-01-08T08:53:23.522Z,12.87
2018-01-08T08:55:53.205Z,11.87
2018-01-08T08:58:32.749Z,10.83
2018-01-08T09:01:02.830Z,12.47
2018-01-08T09:03:32.404Z,10.97
2018-01-08T09:06:01.974Z,11.47
2018-01-08T09:08:31.598Z,12.43
2018-01-08T09:11:01.165Z,9.27
2018-01-08T09:13:31.721Z,12.63
2018-01-08T09:16:01.279Z,13.70
2018-01-08T09:18:30.821Z,12.10
2018-01-08T09:21:00.377Z,10.40
2018-01-08T09:23:29.966Z,12.87
2018-01-08T09:25:59.548Z,11.23
2018-01-08T09:28:29.090Z,11.70
2018-01-08T09:30:58.646Z,11.87
2018-01-08T09:33:28.210Z,12.27
2018-01-08T09:35:57.789Z,10.80
2018-01-08T09:38:27.405Z,12.37
2018-01-08T09:40:57.007Z,12.77
2018-01-08T09:43:26.581Z,11.53
2018-01-08T09:45:56.134Z,9.87
2018-01-08T09:48:25.758Z,9.53
2018-01-08T09:50:55.359Z,12.20
2018-01-08T09:53:24.924Z,12.47
2018-01-08T09:55:54.497Z,12.07
2018-01-08T09:58:24.068Z,12.23
2018-01-08T10:00:59.791Z,12.03
2018-01-08T10:03:43.712Z,11.53
2018-01-08T10:06:18.768Z,11.13
2018-01-08T10:08:53.842Z,14.37
2018-01-08T10:11:28.911Z,20.77
2018-01-08T10:14:03.987Z,15.13
2018-01-08T10:16:39.075Z,12.63
2018-01-08T10:19:26.127Z,12.57
2018-01-08T10:21:55.699Z,11.80
2018-01-08T10:24:25.273Z,11.63
2018-01-08T10:26:54.855Z,11.63
2018-01-08T10:29:23.442Z,10.03
2018-01-08T10:31:51.670Z,13.17
2018-01-08T10:34:19.957Z,11.13
2018-01-08T10:36:47.903Z,11.03
2018-01-08T10:39:16.448Z,8.97
2018-01-08T10:47:36.896Z,10.50
2018-01-08T10:50:10.842Z,10.97
2018-01-08T10:52:39.271Z,11.63
2018-01-08T10:55:15.290Z,11.97
2018-01-08T10:57:43.858Z,11.23
2018-01-08T11:00:12.453Z,10.70
2018-01-08T11:02:46.531Z,11.33
2018-01-08T11:05:15.120Z,11.27
2018-01-08T11:07:44.650Z,9.27
2018-01-08T11:10:13.366Z,11.37
2018-01-08T11:12:41.929Z,10.23
2018-01-08T11:15:10.491Z,11.97
2018-01-08T11:17:50.708Z,11.40
2018-01-08T11:20:18.983Z,10.43
2018-01-08T11:22:48.266Z,12.27
2018-01-08T11:25:16.546Z,10.87
2018-01-08T11:27:45.130Z,10.33
2018-01-08T11:30:13.367Z,11.20
2018-01-08T11:32:41.967Z,10.57
2018-01-08T11:35:11.283Z,11.50
2018-01-08T11:37:39.187Z,12.93
2018-01-08T11:40:07.126Z,11.90
2018-01-08T11:42:35.090Z,10.00
2018-01-08T11:45:03.022Z,11.07
2018-01-08T11:47:31.294Z,10.00
2018-01-08T11:49:59.260Z,9.93
2018-01-08T11:52:27.150Z,10.07
2018-01-08T11:54:55.860Z,11.30
2018-01-08T11:57:25.111Z,10.97
2018-01-08T11:59:53.030Z,9.80
2018-01-08T12:02:21.295Z,9.50
2018-01-08T12:04:49.586Z,12.20
2018-01-08T12:07:17.485Z,12.10
2018-01-08T12:09:45.414Z,10.83
2018-01-08T12:12:15.267Z,12.30
2018-01-08T12:14:43.559Z,11.53
2018-01-08T12:17:11.495Z,10.60
2018-01-08T12:19:40.047Z,11.40
2018-01-08T12:22:08.642Z,10.40
2018-01-08T12:24:37.233Z,11.10
2018-01-08T12:27:05.806Z,10.80
2018-01-08T12:29:35.396Z,11.17
2018-01-08T12:32:04.982Z,9.93
2018-01-08T12:34:34.525Z,10.40
2018-01-08T12:37:04.021Z,11.53
2018-01-08T12:39:33.605Z,10.70
2018-01-08T12:42:02.950Z,10.13
2018-01-08T12:44:31.460Z,11.37
2018-01-08T12:47:00.056Z,10.77
2018-01-08T12:49:28.299Z,10.70
2018-01-08T12:51:56.887Z,12.10
2018-01-08T12:54:25.490Z,12.93
2018-01-08T12:56:54.044Z,9.83
2018-01-08T12:59:22.576Z,11.20
2018-01-08T13:01:51.314Z,10.90
2018-01-08T13:04:19.278Z,11.30
2018-01-08T13:06:47.191Z,10.63
2018-01-08T13:09:15.780Z,11.03
2018-01-08T13:11:44.347Z,13.80
2018-01-08T13:14:12.872Z,13.57
2018-01-08T13:16:41.394Z,12.70
2018-01-08T13:19:09.991Z,12.60
2018-01-08T13:21:38.580Z,11.97
2018-01-08T13:24:07.370Z,12.00
2018-01-08T13:26:35.926Z,11.90
2018-01-08T13:29:04.453Z,10.83
2018-01-08T13:31:33.785Z,12.17
2018-01-08T13:34:02.403Z,14.47
2018-01-08T13:36:30.951Z,11.27
2018-01-08T13:38:59.487Z,11.47
2018-01-08T13:41:29.057Z,10.50
2018-01-08T13:43:57.319Z,10.37
2018-01-08T13:46:25.262Z,11.43
2018-01-08T13:48:53.987Z,10.23
2018-01-08T13:51:21.952Z,9.43
2018-01-08T13:53:51.224Z,10.67
2018-01-08T13:56:20.499Z,11.27
2018-01-08T13:58:50.654Z,10.23
2018-01-08T14:01:19.897Z,10.83
2018-01-08T14:03:49.171Z,10.90
2018-01-08T14:06:17.122Z,10.23
2018-01-08T14:08:45.091Z,11.40
2018-01-08T14:11:13.042Z,11.27
2018-01-08T14:13:40.959Z,11.83
2018-01-08T14:16:09.526Z,25.57
2018-01-08T14:18:38.090Z,14.00
2018-01-08T14:21:06.675Z,11.20
2018-01-08T14:23:35.215Z,13.27
2018-01-08T14:26:03.520Z,13.47
2018-01-08T14:28:32.838Z,11.10
2018-01-08T14:31:01.074Z,13.07
2018-01-08T14:33:29.638Z,12.40
2018-01-08T14:35:58.252Z,17.37
2018-01-08T14:38:27.531Z,12.03
2018-01-08T14:40:56.095Z,10.73
2018-01-08T14:43:24.714Z,13.00
2018-01-08T14:45:53.738Z,12.70
2018-01-08T14:48:22.308Z,10.33
2018-01-08T14:50:50.559Z,9.57
2018-01-08T14:53:19.082Z,10.87
2018-01-08T14:55:47.633Z,12.57
2018-01-08T14:58:15.916Z,12.53
2018-01-08T15:00:44.652Z,10.77
2018-01-08T15:03:13.221Z,9.60
2018-01-08T15:05:41.843Z,10.20
2018-01-08T15:08:10.066Z,10.50
2018-01-08T15:10:38.749Z,11.47
2018-01-08T15:13:07.298Z,11.27
2018-01-08T15:15:35.871Z,11.40
2018-01-08T15:18:07.456Z,10.50
2018-01-08T15:20:36.478Z,9.73
2018-01-08T15:23:05.061Z,10.13
2018-01-08T15:25:33.132Z,10.07
2018-01-08T15:28:01.691Z,10.87
2018-01-08T15:30:31.026Z,11.67
2018-01-08T15:32:59.575Z,8.87
2018-01-08T15:35:28.896Z,10.30
2018-01-08T15:37:58.230Z,11.20
2018-01-08T15:40:42.899Z,10.47
2018-01-08T15:43:11.435Z,9.30
2018-01-08T15:45:39.994Z,10.00
2018-01-08T15:51:02.334Z,12.33
2018-01-08T15:53:30.863Z,12.57
2018-01-08T15:55:59.425Z,10.27
2018-01-08T15:58:27.989Z,11.10
2018-01-08T16:00:57.019Z,15.33
2018-01-08T16:03:25.567Z,12.60
2018-01-08T16:05:54.883Z,11.93
2018-01-08T16:08:23.434Z,9.67
2018-01-08T16:10:52.055Z,10.57
2018-01-08T16:13:20.618Z,11.30
2018-01-08T16:15:49.931Z,11.47
2018-01-08T16:18:18.494Z,9.97
2018-01-08T16:20:47.084Z,9.63
2018-01-08T16:23:16.413Z,9.97
2018-01-08T16:25:44.976Z,9.80
2018-01-08T16:28:14.226Z,10.37
2018-01-08T16:30:42.770Z,10.80
2018-01-08T16:33:11.390Z,10.47
2018-01-08T16:35:39.881Z,11.47
2018-01-08T16:38:08.434Z,9.70
2018-01-08T16:40:37.002Z,10.07
2018-01-08T16:43:06.351Z,10.07
2018-01-08T16:45:34.902Z,11.17
2018-01-08T16:48:03.435Z,10.33
2018-01-08T16:50:32.092Z,10.17
2018-01-08T16:53:00.629Z,10.30
2018-01-08T16:55:29.542Z,9.87
2018-01-08T16:57:58.072Z,18.67
2018-01-08T17:00:26.658Z,11.97
2018-01-08T17:02:57.785Z,12.73
2018-01-08T17:05:26.825Z,12.30
2018-01-08T17:07:55.381Z,12.63
2018-01-08T17:10:23.884Z,12.47
2018-01-08T17:12:53.414Z,12.83
2018-01-08T17:15:22.019Z,10.40
2018-01-08T17:17:52.086Z,11.37
2018-01-08T17:20:20.987Z,15.50
2018-01-08T17:22:49.534Z,20.47
2018-01-08T17:25:18.062Z,13.57
2018-01-08T17:27:46.604Z,10.33
2018-01-08T17:30:15.143Z,9.37
2018-01-08T17:32:43.706Z,11.17
2018-01-08T17:35:12.243Z,13.40
2018-01-08T17:37:40.778Z,12.07
2018-01-08T17:40:09.343Z,11.27
2018-01-08T17:42:37.979Z,10.97
2018-01-08T17:45:06.542Z,9.90
2018-01-08T17:47:35.304Z,9.13
2018-01-08T17:50:03.523Z,9.90
2018-01-08T17:52:32.068Z,9.67
2018-01-08T17:55:01.080Z,9.53
2018-01-08T17:57:29.755Z,9.70
2018-01-08T17:59:58.292Z,8.97
2018-01-08T18:02:26.807Z,10.03
2018-01-08T18:04:55.358Z,11.17
2018-01-08T18:07:23.897Z,10.33
2018-01-08T18:09:52.412Z,10.47
2018-01-08T18:12:20.974Z,9.93
2018-01-08T18:14:49.543Z,8.60
2018-01-08T18:17:18.046Z,10.30
2018-01-08T18:19:46.956Z,9.97
2018-01-08T18:22:15.538Z,10.17
2018-01-08T18:24:45.030Z,9.63
2018-01-08T18:27:13.936Z,8.80
2018-01-08T18:29:43.231Z,9.30
2018-01-08T18:32:11.843Z,10.30
2018-01-08T18:34:40.420Z,11.10
2018-01-08T18:37:09.209Z,10.00
2018-01-08T18:39:37.784Z,8.50
2018-01-08T18:42:07.121Z,10.20
2018-01-08T18:44:35.747Z,8.53
2018-01-08T18:47:04.488Z,8.87
2018-01-08T18:49:33.096Z,9.17
2018-01-08T18:52:01.747Z,9.30
2018-01-08T18:54:30.254Z,9.23
2018-01-08T18:56:58.887Z,8.57
2018-01-08T18:59:28.205Z,8.00
2018-01-08T19:01:56.738Z,9.70
2018-01-08T19:04:25.313Z,8.63
2018-01-08T19:06:53.823Z,8.87
2018-01-08T19:09:22.396Z,7.83
2018-01-08T19:11:51.062Z,8.87
2018-01-08T19:14:19.626Z,8.03
2018-01-08T19:16:48.186Z,8.23
2018-01-08T19:19:17.490Z,7.93
2018-01-08T19:21:46.039Z,8.60
2018-01-08T19:24:14.531Z,8.43
2018-01-08T19:26:43.852Z,9.50
2018-01-08T19:29:12.420Z,6.97
2018-01-08T19:31:40.962Z,8.70
2018-01-08T19:34:09.518Z,8.57
2018-01-08T19:36:38.092Z,8.23
2018-01-08T19:39:06.603Z,7.83
2018-01-08T19:41:35.123Z,8.30
2018-01-08T19:44:03.758Z,7.87
2018-01-08T19:46:32.276Z,9.00
2018-01-08T19:49:00.839Z,8.33
2018-01-08T19:51:29.538Z,7.57
2018-01-08T19:53:58.043Z,7.50
2018-01-08T19:56:27.533Z,7.43
2018-01-08T19:58:56.067Z,8.27
2018-01-08T20:01:25.334Z,8.93
2018-01-08T20:03:53.983Z,7.83
2018-01-08T20:06:22.487Z,8.20
2018-01-08T20:08:51.785Z,8.40
2018-01-08T20:11:20.330Z,7.30
2018-01-08T20:13:48.827Z,8.27
2018-01-08T20:16:17.374Z,7.03
2018-01-08T20:18:45.907Z,8.80
2018-01-08T20:21:14.533Z,8.23
2018-01-08T20:23:43.055Z,7.57
2018-01-08T20:26:11.597Z,7.57
2018-01-08T20:28:40.141Z,12.63
2018-01-08T20:31:09.583Z,7.73
2018-01-08T20:33:39.014Z,8.30
2018-01-08T20:36:09.825Z,9.40
2018-01-08T20:38:38.318Z,10.70
2018-01-08T20:41:06.558Z,9.17
2018-01-08T20:43:35.136Z,11.03
2018-01-08T20:46:04.454Z,8.97
2018-01-08T20:48:32.995Z,7.23
2018-01-08T20:51:03.530Z,8.10
2018-01-08T20:53:32.065Z,8.23
2018-01-08T20:56:10.356Z,10.97
2018-01-08T20:58:39.703Z,12.23
2018-01-08T21:01:08.190Z,10.77
2018-01-08T21:03:36.764Z,8.60
2018-01-08T21:06:06.273Z,7.77
2018-01-08T21:08:34.813Z,8.20
2018-01-08T21:11:03.352Z,8.67
2018-01-08T21:13:31.870Z,9.37
2018-01-08T21:16:01.178Z,8.80
2018-01-08T21:18:33.414Z,9.70
2018-01-08T21:21:01.954Z,7.93
2018-01-08T21:23:30.442Z,8.33
2018-01-08T21:25:58.950Z,8.17
2018-01-08T21:28:27.490Z,8.20
2018-01-08T21:30:56.013Z,8.23
2018-01-08T21:33:24.554Z,7.70
2018-01-08T21:35:53.099Z,8.73
2018-01-08T21:38:22.354Z,7.10
2018-01-08T21:40:50.908Z,8.37
2018-01-08T21:43:19.451Z,8.77
2018-01-08T21:45:48.010Z,8.70
2018-01-08T21:48:16.555Z,6.57
2018-01-08T21:50:45.215Z,7.87
2018-01-08T21:53:13.859Z,7.63
2018-01-08T21:55:45.615Z,8.23
2018-01-08T21:58:14.176Z,8.43
2018-01-08T22:00:42.668Z,7.70
2018-01-08T22:03:11.186Z,8.00
2018-01-08T22:05:39.751Z,9.30
2018-01-08T22:08:08.359Z,7.60
2018-01-08T22:10:36.908Z,8.30
2018-01-08T22:13:05.442Z,8.23
2018-01-08T22:15:34.764Z,7.00
2018-01-08T22:18:03.278Z,7.30
2018-01-08T22:20:31.831Z,7.67
2018-01-08T22:23:00.397Z,8.73
2018-01-08T22:25:28.958Z,9.03
2018-01-08T22:27:57.479Z,8.33
2018-01-08T22:30:25.988Z,7.97
2018-01-08T22:32:54.522Z,7.90
2018-01-08T22:35:23.811Z,7.70
2018-01-08T22:37:53.126Z,7.67
2018-01-08T22:40:22.427Z,8.17
2018-01-08T22:42:50.967Z,7.53
2018-01-08T22:45:19.451Z,7.67
2018-01-08T22:47:47.994Z,7.90
2018-01-08T22:50:17.326Z,7.37
2018-01-08T22:52:45.862Z,6.50
2018-01-08T22:55:15.443Z,6.90
2018-01-08T22:57:43.970Z,7.03
2018-01-08T23:00:12.486Z,7.63
2018-01-08T23:02:41.050Z,7.60
2018-01-08T23:05:09.590Z,7.30
2018-01-08T23:07:38.142Z,7.13
2018-01-08T23:10:06.704Z,7.30
2018-01-08T23:12:35.260Z,7.37
2018-01-08T23:15:03.767Z,7.40
2018-01-08T23:17:32.318Z,7.53
2018-01-08T23:20:00.893Z,7.17
2018-01-08T23:22:29.473Z,7.67
2018-01-08T23:24:58.026Z,6.67
2018-01-08T23:27:26.652Z,7.20
2018-01-08T23:29:55.187Z,6.57
2018-01-08T23:32:24.525Z,7.30
2018-01-08T23:34:53.065Z,7.57
2018-01-08T23:37:21.572Z,7.53
2018-01-08T23:39:50.104Z,6.70
2018-01-08T23:42:18.633Z,6.97
2018-01-08T23:44:47.936Z,6.70
2018-01-08T23:47:17.198Z,6.87
2018-01-08T23:49:45.766Z,7.60
2018-01-08T23:52:14.264Z,7.33
2018-01-08T23:54:42.811Z,7.17
2018-01-08T23:57:11.363Z,6.50
2018-01-08T23:59:40.046Z,7.03
